sensor_id;sensor_type;location;lat;lon;timestamp;pressure;altitude;pressure_sealevel;temperature;humidity
56514;BME280;62152;52.078;8.414;2023-06-19T00:02:59;99628.50;;;23.29;45.61
56514;BME280;62152;52.078;8.414;2023-06-19T00:07:00;99622.97;;;23.29;46.15
56514;BME280;62152;52.078;8.414;2023-06-19T00:11:02;99620.19;;;23.29;45.90
56514;BME280;62152;52.078;8.414;2023-06-19T00:15:04;99618.63;;;23.28;46.00
56514;BME280;62152;52.078;8.414;2023-06-19T00:19:05;99619.41;;;23.28;46.04
56514;BME280;62152;52.078;8.414;2023-06-19T00:23:06;99613.09;;;23.28;45.78
56514;BME280;62152;52.078;8.414;2023-06-19T00:27:08;99598.06;;;23.29;45.94
56514;BME280;62152;52.078;8.414;2023-06-19T00:31:09;99588.19;;;23.28;45.67
56514;BME280;62152;52.078;8.414;2023-06-19T00:35:10;99579.91;;;23.28;46.24
56514;BME280;62152;52.078;8.414;2023-06-19T00:39:10;99585.44;;;23.28;46.17
56514;BME280;62152;52.078;8.414;2023-06-19T00:43:13;99572.38;;;23.28;46.26
56514;BME280;62152;52.078;8.414;2023-06-19T00:47:13;99574.38;;;23.28;45.85
56514;BME280;62152;52.078;8.414;2023-06-19T00:51:14;99568.84;;;23.28;46.13
56514;BME280;62152;52.078;8.414;2023-06-19T00:55:16;99560.53;;;23.28;45.92
56514;BME280;62152;52.078;8.414;2023-06-19T00:59:19;99554.22;;;23.27;46.01
56514;BME280;62152;52.078;8.414;2023-06-19T01:03:21;99538.00;;;23.26;45.94
56514;BME280;62152;52.078;8.414;2023-06-19T01:07:52;99536.84;;;23.27;46.31
56514;BME280;62152;52.078;8.414;2023-06-19T01:12:08;99521.41;;;23.26;45.97
56514;BME280;62152;52.078;8.414;2023-06-19T01:16:19;99523.00;;;23.27;45.80
56514;BME280;62152;52.078;8.414;2023-06-19T01:20:22;99537.22;;;23.25;45.65
56514;BME280;62152;52.078;8.414;2023-06-19T01:24:24;99534.47;;;23.25;46.40
56514;BME280;62152;52.078;8.414;2023-06-19T01:28:25;99532.47;;;23.26;45.73
56514;BME280;62152;52.078;8.414;2023-06-19T01:32:33;99546.31;;;23.26;45.85
56514;BME280;62152;52.078;8.414;2023-06-19T01:36:41;99545.16;;;23.27;46.23
56514;BME280;62152;52.078;8.414;2023-06-19T01:40:44;99549.09;;;23.26;46.13
56514;BME280;62152;52.078;8.414;2023-06-19T01:44:47;99553.06;;;23.25;45.82
56514;BME280;62152;52.078;8.414;2023-06-19T01:48:48;99543.56;;;23.26;45.73
56514;BME280;62152;52.078;8.414;2023-06-19T01:52:49;99546.31;;;23.26;45.77
56514;BME280;62152;52.078;8.414;2023-06-19T01:56:52;99553.84;;;23.25;46.26
56514;BME280;62152;52.078;8.414;2023-06-19T02:00:53;99549.09;;;23.26;46.37
56514;BME280;62152;52.078;8.414;2023-06-19T02:04:55;99549.09;;;23.26;46.25
56514;BME280;62152;52.078;8.414;2023-06-19T02:08:56;99542.78;;;23.25;46.12
56514;BME280;62152;52.078;8.414;2023-06-19T02:12:58;99543.56;;;23.26;46.49
56514;BME280;62152;52.078;8.414;2023-06-19T02:16:59;99538.00;;;23.26;45.97
56514;BME280;62152;52.078;8.414;2023-06-19T02:21:00;99538.00;;;23.26;45.94
56514;BME280;62152;52.078;8.414;2023-06-19T02:25:01;99535.25;;;23.26;46.40
56514;BME280;62152;52.078;8.414;2023-06-19T02:29:03;99538.00;;;23.26;45.84
56514;BME280;62152;52.078;8.414;2023-06-19T02:33:04;99531.69;;;23.25;46.05
56514;BME280;62152;52.078;8.414;2023-06-19T02:37:05;99532.47;;;23.26;46.04
56514;BME280;62152;52.078;8.414;2023-06-19T02:41:06;99538.00;;;23.26;46.52
56514;BME280;62152;52.078;8.414;2023-06-19T02:45:09;99543.56;;;23.26;45.90
56514;BME280;62152;52.078;8.414;2023-06-19T02:49:10;99542.38;;;23.27;46.32
56514;BME280;62152;52.078;8.414;2023-06-19T02:53:11;99542.38;;;23.27;45.95
56514;BME280;62152;52.078;8.414;2023-06-19T02:57:12;99535.25;;;23.26;46.33
56514;BME280;62152;52.078;8.414;2023-06-19T03:01:14;99532.91;;;23.24;46.05
56514;BME280;62152;52.078;8.414;2023-06-19T03:05:15;99525.38;;;23.25;46.06
56514;BME280;62152;52.078;8.414;2023-06-19T03:09:16;99530.91;;;23.25;46.49
56514;BME280;62152;52.078;8.414;2023-06-19T03:13:17;99532.91;;;23.24;46.52
56514;BME280;62152;52.078;8.414;2023-06-19T03:17:19;99534.13;;;23.23;46.43
56514;BME280;62152;52.078;8.414;2023-06-19T03:21:21;99536.88;;;23.23;46.22
56514;BME280;62152;52.078;8.414;2023-06-19T03:25:23;99541.97;;;23.25;46.45
56514;BME280;62152;52.078;8.414;2023-06-19T03:29:24;99541.97;;;23.25;46.25
56514;BME280;62152;52.078;8.414;2023-06-19T03:33:31;99545.97;;;23.24;46.47
56514;BME280;62152;52.078;8.414;2023-06-19T03:37:32;99549.94;;;23.23;46.33
56514;BME280;62152;52.078;8.414;2023-06-19T03:41:34;99545.97;;;23.24;46.25
56514;BME280;62152;52.078;8.414;2023-06-19T03:45:35;99556.25;;;23.23;46.25
56514;BME280;62152;52.078;8.414;2023-06-19T03:49:37;99552.69;;;23.23;46.56
56514;BME280;62152;52.078;8.414;2023-06-19T03:53:38;99566.53;;;23.23;46.36
56514;BME280;62152;52.078;8.414;2023-06-19T03:57:39;99566.09;;;23.24;46.37
56514;BME280;62152;52.078;8.414;2023-06-19T04:01:40;99563.34;;;23.24;46.18
56514;BME280;62152;52.078;8.414;2023-06-19T04:05:42;99562.97;;;23.22;46.08
56514;BME280;62152;52.078;8.414;2023-06-19T04:09:45;99560.63;;;23.20;45.93
56514;BME280;62152;52.078;8.414;2023-06-19T04:13:46;99564.63;;;23.16;45.86
56514;BME280;62152;52.078;8.414;2023-06-19T04:17:47;99565.38;;;23.20;45.59
56514;BME280;62152;52.078;8.414;2023-06-19T04:21:49;99566.16;;;23.20;46.11
56514;BME280;62152;52.078;8.414;2023-06-19T04:25:50;99562.63;;;23.20;46.20
56514;BME280;62152;52.078;8.414;2023-06-19T04:29:51;99574.47;;;23.20;46.08
56514;BME280;62152;52.078;8.414;2023-06-19T04:33:52;99566.94;;;23.21;46.15
56514;BME280;62152;52.078;8.414;2023-06-19T04:37:54;99572.47;;;23.21;46.18
56514;BME280;62152;52.078;8.414;2023-06-19T04:41:55;99580.78;;;23.21;45.85
56514;BME280;62152;52.078;8.414;2023-06-19T04:45:56;99585.13;;;23.22;45.86
56514;BME280;62152;52.078;8.414;2023-06-19T04:49:57;99585.53;;;23.20;46.11
56514;BME280;62152;52.078;8.414;2023-06-19T04:53:59;99586.69;;;23.23;46.15
56514;BME280;62152;52.078;8.414;2023-06-19T04:58:00;99587.47;;;23.24;46.16
56514;BME280;62152;52.078;8.414;2023-06-19T05:02:01;99593.00;;;23.24;46.16
56514;BME280;62152;52.078;8.414;2023-06-19T05:06:02;99602.84;;;23.25;46.26
56514;BME280;62152;52.078;8.414;2023-06-19T05:10:04;99602.84;;;23.25;46.24
56514;BME280;62152;52.078;8.414;2023-06-19T05:14:05;99609.94;;;23.26;46.31
56514;BME280;62152;52.078;8.414;2023-06-19T05:18:06;99626.94;;;23.28;45.90
56514;BME280;62152;52.078;8.414;2023-06-19T05:22:07;99626.16;;;23.27;45.89
56514;BME280;62152;52.078;8.414;2023-06-19T05:26:09;99637.59;;;23.29;45.73
56514;BME280;62152;52.078;8.414;2023-06-19T05:30:11;99636.81;;;23.29;45.92
56514;BME280;62152;52.078;8.414;2023-06-19T05:34:12;99645.09;;;23.29;45.92
56514;BME280;62152;52.078;8.414;2023-06-19T05:38:13;99650.22;;;23.30;45.95
56514;BME280;62152;52.078;8.414;2023-06-19T05:42:15;99643.47;;;23.31;45.87
56514;BME280;62152;52.078;8.414;2023-06-19T05:46:16;99656.53;;;23.31;46.31
56514;BME280;62152;52.078;8.414;2023-06-19T05:50:17;99654.13;;;23.33;46.17
56514;BME280;62152;52.078;8.414;2023-06-19T05:54:18;99652.13;;;23.33;45.79
56514;BME280;62152;52.078;8.414;2023-06-19T05:58:20;99657.69;;;23.33;45.91
56514;BME280;62152;52.078;8.414;2023-06-19T06:02:21;99660.44;;;23.33;46.08
56514;BME280;62152;52.078;8.414;2023-06-19T06:06:22;99665.19;;;23.33;46.11
56514;BME280;62152;52.078;8.414;2023-06-19T06:10:24;99684.19;;;23.34;46.16
56514;BME280;62152;52.078;8.414;2023-06-19T06:14:27;99674.66;;;23.35;46.12
56514;BME280;62152;52.078;8.414;2023-06-19T06:18:27;99685.75;;;23.35;46.34
56514;BME280;62152;52.078;8.414;2023-06-19T06:22:28;99686.53;;;23.36;46.23
56514;BME280;62152;52.078;8.414;2023-06-19T06:26:29;99685.75;;;23.35;45.95
56514;BME280;62152;52.078;8.414;2023-06-19T06:30:31;99690.84;;;23.37;45.86
56514;BME280;62152;52.078;8.414;2023-06-19T06:34:32;99697.16;;;23.37;45.65
56514;BME280;62152;52.078;8.414;2023-06-19T06:38:33;99696.75;;;23.39;45.87
56514;BME280;62152;52.078;8.414;2023-06-19T06:42:34;99691.22;;;23.39;45.94
56514;BME280;62152;52.078;8.414;2023-06-19T06:46:36;99703.06;;;23.39;46.23
56514;BME280;62152;52.078;8.414;2023-06-19T06:50:37;99705.84;;;23.39;46.35
56514;BME280;62152;52.078;8.414;2023-06-19T06:54:38;99703.06;;;23.39;46.26
56514;BME280;62152;52.078;8.414;2023-06-19T06:58:38;99715.72;;;23.40;46.04
56514;BME280;62152;52.078;8.414;2023-06-19T07:02:41;99729.16;;;23.42;46.37
56514;BME280;62152;52.078;8.414;2023-06-19T07:06:42;99735.88;;;23.41;46.12
56514;BME280;62152;52.078;8.414;2023-06-19T07:10:42;99733.13;;;23.41;46.06
56514;BME280;62152;52.078;8.414;2023-06-19T07:14:43;99735.47;;;23.42;46.23
56514;BME280;62152;52.078;8.414;2023-06-19T07:18:46;99731.91;;;23.42;45.85
56514;BME280;62152;52.078;8.414;2023-06-19T07:22:47;99748.53;;;23.42;45.98
56514;BME280;62152;52.078;8.414;2023-06-19T07:26:47;99749.72;;;23.41;46.34
56514;BME280;62152;52.078;8.414;2023-06-19T07:30:48;99745.75;;;23.42;45.89
56514;BME280;62152;52.078;8.414;2023-06-19T07:34:51;99754.06;;;23.42;46.17
56514;BME280;62152;52.078;8.414;2023-06-19T07:38:52;99751.28;;;23.42;45.98
56514;BME280;62152;52.078;8.414;2023-06-19T07:42:53;99750.50;;;23.41;46.16
56514;BME280;62152;52.078;8.414;2023-06-19T07:46:54;99755.25;;;23.41;45.94
56514;BME280;62152;52.078;8.414;2023-06-19T07:50:56;99748.88;;;23.44;46.23
56514;BME280;62152;52.078;8.414;2023-06-19T07:54:58;99754.78;;;23.46;46.19
56514;BME280;62152;52.078;8.414;2023-06-19T07:58:59;99759.13;;;23.47;46.24
56514;BME280;62152;52.078;8.414;2023-06-19T08:02:59;99759.13;;;23.47;45.91
56514;BME280;62152;52.078;8.414;2023-06-19T08:07:02;99759.88;;;23.51;46.27
56514;BME280;62152;52.078;8.414;2023-06-19T08:11:03;99754.75;;;23.50;46.24
56514;BME280;62152;52.078;8.414;2023-06-19T08:15:04;99763.84;;;23.50;46.14
56514;BME280;62152;52.078;8.414;2023-06-19T08:19:06;99773.34;;;23.49;45.82
56514;BME280;62152;52.078;8.414;2023-06-19T08:23:08;99776.13;;;23.49;46.01
56514;BME280;62152;52.078;8.414;2023-06-19T08:27:09;99777.25;;;23.52;46.37
56514;BME280;62152;52.078;8.414;2023-06-19T08:31:10;99776.47;;;23.51;46.50
56514;BME280;62152;52.078;8.414;2023-06-19T08:35:10;99780.44;;;23.50;46.08
56514;BME280;62152;52.078;8.414;2023-06-19T08:39:13;99785.94;;;23.54;46.28
56514;BME280;62152;52.078;8.414;2023-06-19T08:43:14;99790.69;;;23.53;46.31
56514;BME280;62152;52.078;8.414;2023-06-19T08:47:15;99810.84;;;23.54;46.29
56514;BME280;62152;52.078;8.414;2023-06-19T08:51:16;99815.19;;;23.55;46.15
56514;BME280;62152;52.078;8.414;2023-06-19T08:55:18;99807.69;;;23.55;46.27
56514;BME280;62152;52.078;8.414;2023-06-19T08:59:20;99816.34;;;23.57;46.10
56514;BME280;62152;52.078;8.414;2023-06-19T09:03:22;99813.59;;;23.57;46.06
56514;BME280;62152;52.078;8.414;2023-06-19T09:07:23;99825.03;;;23.59;45.94
56514;BME280;62152;52.078;8.414;2023-06-19T09:11:25;99822.69;;;23.61;46.14
56514;BME280;62152;52.078;8.414;2023-06-19T09:15:28;99829.78;;;23.62;46.17
56514;BME280;62152;52.078;8.414;2023-06-19T09:19:33;99827.78;;;23.59;46.13
56514;BME280;62152;52.078;8.414;2023-06-19T09:23:33;99833.75;;;23.61;45.64
56514;BME280;62152;52.078;8.414;2023-06-19T09:27:39;99840.84;;;23.62;45.68
56514;BME280;62152;52.078;8.414;2023-06-19T09:31:39;99839.66;;;23.63;46.02
56514;BME280;62152;52.078;8.414;2023-06-19T09:35:40;99842.41;;;23.63;45.82
56514;BME280;62152;52.078;8.414;2023-06-19T09:39:41;99840.44;;;23.64;45.74
56514;BME280;62152;52.078;8.414;2023-06-19T09:43:47;99842.00;;;23.65;45.71
56514;BME280;62152;52.078;8.414;2023-06-19T09:47:52;99840.78;;;23.66;46.13
56514;BME280;62152;52.078;8.414;2023-06-19T09:51:54;99841.56;;;23.66;45.83
56514;BME280;62152;52.078;8.414;2023-06-19T09:55:55;99855.84;;;23.65;45.74
56514;BME280;62152;52.078;8.414;2023-06-19T09:59:58;99850.31;;;23.65;46.23
56514;BME280;62152;52.078;8.414;2023-06-19T10:04:05;99865.34;;;23.64;45.68
56514;BME280;62152;52.078;8.414;2023-06-19T10:08:07;99862.56;;;23.64;46.17
56514;BME280;62152;52.078;8.414;2023-06-19T10:12:12;99865.34;;;23.64;46.22
56514;BME280;62152;52.078;8.414;2023-06-19T10:16:22;99866.56;;;23.63;46.16
56514;BME280;62152;52.078;8.414;2023-06-19T10:20:26;99866.97;;;23.61;45.93
56514;BME280;62152;52.078;8.414;2023-06-19T10:24:28;99864.56;;;23.63;45.81
56514;BME280;62152;52.078;8.414;2023-06-19T10:28:32;99883.94;;;23.63;46.20
56514;BME280;62152;52.078;8.414;2023-06-19T10:32:35;99868.91;;;23.64;46.24
56514;BME280;62152;52.078;8.414;2023-06-19T10:36:36;99873.59;;;23.67;45.82
56514;BME280;62152;52.078;8.414;2023-06-19T10:40:37;99871.22;;;23.69;45.89
56514;BME280;62152;52.078;8.414;2023-06-19T10:44:38;99872.78;;;23.70;45.76
56514;BME280;62152;52.078;8.414;2023-06-19T10:48:40;99875.56;;;23.70;45.74
56514;BME280;62152;52.078;8.414;2023-06-19T10:52:42;99876.38;;;23.67;45.74
56514;BME280;62152;52.078;8.414;2023-06-19T10:56:44;99869.59;;;23.72;45.70
56514;BME280;62152;52.078;8.414;2023-06-19T11:00:45;99875.56;;;23.70;46.18
56514;BME280;62152;52.078;8.414;2023-06-19T11:04:47;99869.97;;;23.74;45.99
56514;BME280;62152;52.078;8.414;2023-06-19T11:08:51;99863.66;;;23.73;45.87
56514;BME280;62152;52.078;8.414;2023-06-19T11:12:54;99874.34;;;23.75;45.46
56514;BME280;62152;52.078;8.414;2023-06-19T11:16:55;99871.56;;;23.75;45.57
56514;BME280;62152;52.078;8.414;2023-06-19T11:20:59;99870.38;;;23.72;45.94
56514;BME280;62152;52.078;8.414;2023-06-19T11:25:02;99878.34;;;23.70;46.24
56514;BME280;62152;52.078;8.414;2023-06-19T11:29:13;99883.88;;;23.70;45.69
56514;BME280;62152;52.078;8.414;2023-06-19T11:33:18;99873.16;;;23.72;45.76
56514;BME280;62152;52.078;8.414;2023-06-19T11:37:21;99877.88;;;23.76;45.87
56514;BME280;62152;52.078;8.414;2023-06-19T11:41:25;99883.00;;;23.77;45.74
56514;BME280;62152;52.078;8.414;2023-06-19T11:45:27;99878.25;;;23.78;45.94
56514;BME280;62152;52.078;8.414;2023-06-19T11:49:34;99889.31;;;23.78;45.78
56514;BME280;62152;52.078;8.414;2023-06-19T11:53:37;99890.13;;;23.78;45.89
56514;BME280;62152;52.078;8.414;2023-06-19T11:57:38;99882.59;;;23.79;45.86
56514;BME280;62152;52.078;8.414;2023-06-19T12:01:39;99882.59;;;23.79;46.06
56514;BME280;62152;52.078;8.414;2023-06-19T12:05:40;99879.00;;;23.82;46.02
56514;BME280;62152;52.078;8.414;2023-06-19T12:09:42;99877.41;;;23.81;46.10
56514;BME280;62152;52.078;8.414;2023-06-19T12:13:44;99871.88;;;23.81;45.97
56514;BME280;62152;52.078;8.414;2023-06-19T12:17:45;99865.56;;;23.80;45.62
56514;BME280;62152;52.078;8.414;2023-06-19T12:21:46;99866.34;;;23.81;46.04
56514;BME280;62152;52.078;8.414;2023-06-19T12:25:48;99863.19;;;23.82;45.56
56514;BME280;62152;52.078;8.414;2023-06-19T12:29:49;99865.16;;;23.82;45.92
56514;BME280;62152;52.078;8.414;2023-06-19T12:33:49;99865.16;;;23.82;46.22
56514;BME280;62152;52.078;8.414;2023-06-19T12:37:50;99862.75;;;23.84;45.63
56514;BME280;62152;52.078;8.414;2023-06-19T12:41:53;99854.44;;;23.84;45.74
56514;BME280;62152;52.078;8.414;2023-06-19T12:45:54;99864.75;;;23.83;46.09
56514;BME280;62152;52.078;8.414;2023-06-19T12:49:54;99854.88;;;23.82;45.96
56514;BME280;62152;52.078;8.414;2023-06-19T12:53:55;99862.75;;;23.84;45.95
56514;BME280;62152;52.078;8.414;2023-06-19T12:57:57;99867.09;;;23.85;45.53
56514;BME280;62152;52.078;8.414;2023-06-19T13:01:58;99869.03;;;23.88;46.09
56514;BME280;62152;52.078;8.414;2023-06-19T13:05:59;99870.63;;;23.89;46.03
56514;BME280;62152;52.078;8.414;2023-06-19T13:10:00;99869.44;;;23.86;45.78
56514;BME280;62152;52.078;8.414;2023-06-19T13:14:02;99877.34;;;23.88;45.80
56514;BME280;62152;52.078;8.414;2023-06-19T13:18:03;99873.00;;;23.87;46.06
56514;BME280;62152;52.078;8.414;2023-06-19T13:22:04;99866.25;;;23.88;46.14
56514;BME280;62152;52.078;8.414;2023-06-19T13:26:06;99860.31;;;23.89;45.93
56514;BME280;62152;52.078;8.414;2023-06-19T13:30:10;99867.84;;;23.89;45.55
56514;BME280;62152;52.078;8.414;2023-06-19T13:34:11;99858.34;;;23.90;45.45
56514;BME280;62152;52.078;8.414;2023-06-19T13:38:12;99863.03;;;23.93;45.71
56514;BME280;62152;52.078;8.414;2023-06-19T13:42:13;99864.25;;;23.92;45.56
56514;BME280;62152;52.078;8.414;2023-06-19T13:46:15;99857.13;;;23.91;45.83
56514;BME280;62152;52.078;8.414;2023-06-19T13:50:16;99867.84;;;23.89;46.12
56514;BME280;62152;52.078;8.414;2023-06-19T13:54:17;99867.06;;;23.88;46.13
56514;BME280;62152;52.078;8.414;2023-06-19T13:58:18;99868.63;;;23.89;45.94
56514;BME280;62152;52.078;8.414;2023-06-19T14:02:20;99862.69;;;23.91;45.91
56514;BME280;62152;52.078;8.414;2023-06-19T14:06:20;99868.94;;;23.95;45.51
56514;BME280;62152;52.078;8.414;2023-06-19T14:10:21;99861.44;;;23.95;45.97
56514;BME280;62152;52.078;8.414;2023-06-19T14:14:22;99863.41;;;23.95;45.44
56514;BME280;62152;52.078;8.414;2023-06-19T14:18:24;99874.47;;;23.95;45.39
56514;BME280;62152;52.078;8.414;2023-06-19T14:22:25;99871.72;;;23.95;45.81
56514;BME280;62152;52.078;8.414;2023-06-19T14:26:26;99868.16;;;23.94;45.93
56514;BME280;62152;52.078;8.414;2023-06-19T14:30:27;99863.78;;;23.97;46.08
56514;BME280;62152;52.078;8.414;2023-06-19T14:34:29;99859.81;;;23.98;45.87
56514;BME280;62152;52.078;8.414;2023-06-19T14:38:30;99865.72;;;24.00;45.73
56514;BME280;62152;52.078;8.414;2023-06-19T14:42:31;99860.59;;;23.98;45.84
56514;BME280;62152;52.078;8.414;2023-06-19T14:46:32;99860.63;;;23.95;45.50
56514;BME280;62152;52.078;8.414;2023-06-19T14:50:35;99853.44;;;24.01;45.91
56514;BME280;62152;52.078;8.414;2023-06-19T14:54:35;99847.88;;;24.05;45.67
56514;BME280;62152;52.078;8.414;2023-06-19T14:58:36;99851.06;;;24.03;45.58
56514;BME280;62152;52.078;8.414;2023-06-19T15:02:37;99854.59;;;24.04;45.54
56514;BME280;62152;52.078;8.414;2023-06-19T15:06:39;99862.88;;;24.07;45.73
56514;BME280;62152;52.078;8.414;2023-06-19T15:10:40;99866.72;;;24.17;45.33
56514;BME280;62152;52.078;8.414;2023-06-19T15:14:44;99868.69;;;24.16;45.47
56514;BME280;62152;52.078;8.414;2023-06-19T15:18:45;99868.38;;;24.11;45.50
56514;BME280;62152;52.078;8.414;2023-06-19T15:22:48;99868.69;;;24.16;45.32
56514;BME280;62152;52.078;8.414;2023-06-19T15:26:48;99852.47;;;24.15;45.60
56514;BME280;62152;52.078;8.414;2023-06-19T15:30:50;99845.00;;;24.12;45.75
56514;BME280;62152;52.078;8.414;2023-06-19T15:34:50;99839.81;;;24.14;46.03
56514;BME280;62152;52.078;8.414;2023-06-19T15:38:53;99848.56;;;24.12;45.70
56514;BME280;62152;52.078;8.414;2023-06-19T15:42:53;99834.88;;;24.28;45.50
56514;BME280;62152;52.078;8.414;2023-06-19T15:46:54;99844.78;;;24.29;45.40
56514;BME280;62152;52.078;8.414;2023-06-19T15:50:55;99839.69;;;24.24;45.47
56514;BME280;62152;52.078;8.414;2023-06-19T15:54:57;99842.97;;;24.16;45.87
56514;BME280;62152;52.078;8.414;2023-06-19T15:58:58;99848.13;;;24.14;46.13
56514;BME280;62152;52.078;8.414;2023-06-19T16:02:59;99835.47;;;24.13;45.92
56514;BME280;62152;52.078;8.414;2023-06-19T16:07:00;99837.06;;;24.14;45.92
56514;BME280;62152;52.078;8.414;2023-06-19T16:11:02;99837.16;;;24.37;45.43
56514;BME280;62152;52.078;8.414;2023-06-19T16:15:04;99835.78;;;24.49;45.74
56514;BME280;62152;52.078;8.414;2023-06-19T16:19:05;99832.44;;;24.61;44.86
56514;BME280;62152;52.078;8.414;2023-06-19T16:23:06;99826.91;;;24.61;45.17
56514;BME280;62152;52.078;8.414;2023-06-19T16:27:08;99819.31;;;24.65;45.34
56514;BME280;62152;52.078;8.414;2023-06-19T16:31:09;99821.25;;;24.68;45.23
56514;BME280;62152;52.078;8.414;2023-06-19T16:35:10;99820.78;;;24.73;44.93
56514;BME280;62152;52.078;8.414;2023-06-19T16:39:11;99817.16;;;24.76;44.98
56514;BME280;62152;52.078;8.414;2023-06-19T16:43:17;99814.34;;;24.80;44.78
56514;BME280;62152;52.078;8.414;2023-06-19T16:47:35;99813.09;;;24.85;45.11
56514;BME280;62152;52.078;8.414;2023-06-19T16:51:35;99817.78;;;24.88;44.96
56514;BME280;62152;52.078;8.414;2023-06-19T16:55:37;99810.97;;;24.92;45.13
56514;BME280;62152;52.078;8.414;2023-06-19T16:59:39;99818.88;;;24.94;44.68
56514;BME280;62152;52.078;8.414;2023-06-19T17:03:40;99819.16;;;24.99;44.71
56514;BME280;62152;52.078;8.414;2023-06-19T17:07:41;99818.75;;;25.01;44.84
56514;BME280;62152;52.078;8.414;2023-06-19T17:11:42;99821.09;;;25.02;44.47
56514;BME280;62152;52.078;8.414;2023-06-19T17:15:44;99831.06;;;25.00;45.03
56514;BME280;62152;52.078;8.414;2023-06-19T17:19:45;99840.50;;;25.06;44.54
56514;BME280;62152;52.078;8.414;2023-06-19T17:23:46;99840.84;;;25.08;44.59
56514;BME280;62152;52.078;8.414;2023-06-19T17:27:47;99835.66;;;25.10;44.36
56514;BME280;62152;52.078;8.414;2023-06-19T17:31:49;99837.22;;;25.11;44.47
56514;BME280;62152;52.078;8.414;2023-06-19T17:35:50;99837.22;;;25.11;44.44
56514;BME280;62152;52.078;8.414;2023-06-19T17:39:50;99828.88;;;25.11;44.36
56514;BME280;62152;52.078;8.414;2023-06-19T17:43:51;99836.03;;;25.12;44.45
56514;BME280;62152;52.078;8.414;2023-06-19T17:47:53;99842.75;;;25.11;44.51
56514;BME280;62152;52.078;8.414;2023-06-19T17:51:54;99834.09;;;25.09;44.44
56514;BME280;62152;52.078;8.414;2023-06-19T17:55:55;99838.63;;;24.96;44.63
56514;BME280;62152;52.078;8.414;2023-06-19T17:59:56;99838.88;;;24.81;45.05
56514;BME280;62152;52.078;8.414;2023-06-19T18:03:58;99841.00;;;24.70;45.23
56514;BME280;62152;52.078;8.414;2023-06-19T18:07:59;99849.84;;;24.65;45.57
56514;BME280;62152;52.078;8.414;2023-06-19T18:11:59;99849.88;;;24.62;45.25
56514;BME280;62152;52.078;8.414;2023-06-19T18:16:00;99858.25;;;24.58;45.31
56514;BME280;62152;52.078;8.414;2023-06-19T18:20:03;99854.75;;;24.54;45.65
56514;BME280;62152;52.078;8.414;2023-06-19T18:24:04;99866.69;;;24.51;45.66
56514;BME280;62152;52.078;8.414;2023-06-19T18:28:05;99866.28;;;24.49;45.76
56514;BME280;62152;52.078;8.414;2023-06-19T18:32:06;99860.81;;;24.45;45.55
56514;BME280;62152;52.078;8.414;2023-06-19T18:36:08;99856.09;;;24.42;45.61
56514;BME280;62152;52.078;8.414;2023-06-19T18:40:09;99858.50;;;24.40;45.88
56514;BME280;62152;52.078;8.414;2023-06-19T18:44:11;99860.91;;;24.38;45.83
56514;BME280;62152;52.078;8.414;2023-06-19T18:48:12;99862.50;;;24.36;46.00
56514;BME280;62152;52.078;8.414;2023-06-19T18:52:14;99859.38;;;24.34;45.62
56514;BME280;62152;52.078;8.414;2023-06-19T18:56:15;99861.75;;;24.32;45.71
56514;BME280;62152;52.078;8.414;2023-06-19T19:00:17;99860.56;;;24.33;45.85
56514;BME280;62152;52.078;8.414;2023-06-19T19:04:19;99860.59;;;24.29;46.29
56514;BME280;62152;52.078;8.414;2023-06-19T19:08:22;99863.78;;;24.27;46.30
56514;BME280;62152;52.078;8.414;2023-06-19T19:12:22;99868.97;;;24.25;46.23
56514;BME280;62152;52.078;8.414;2023-06-19T19:16:23;99866.63;;;24.24;46.05
56514;BME280;62152;52.078;8.414;2023-06-19T19:20:24;99869.78;;;24.22;46.20
56514;BME280;62152;52.078;8.414;2023-06-19T19:24:27;99870.22;;;24.21;46.09
56514;BME280;62152;52.078;8.414;2023-06-19T19:28:27;99875.81;;;24.17;46.10
56514;BME280;62152;52.078;8.414;2023-06-19T19:32:28;99882.56;;;24.16;46.29
56514;BME280;62152;52.078;8.414;2023-06-19T19:36:29;99879.41;;;24.14;46.47
56514;BME280;62152;52.078;8.414;2023-06-19T19:40:31;99886.13;;;24.13;46.24
56514;BME280;62152;52.078;8.414;2023-06-19T19:44:32;99884.22;;;24.10;46.09
56514;BME280;62152;52.078;8.414;2023-06-19T19:48:33;99892.53;;;24.10;45.96
56514;BME280;62152;52.078;8.414;2023-06-19T19:52:34;99882.66;;;24.09;46.34
56514;BME280;62152;52.078;8.414;2023-06-19T19:56:36;99903.63;;;24.07;46.05
56514;BME280;62152;52.078;8.414;2023-06-19T20:00:37;99902.84;;;24.06;46.55
56514;BME280;62152;52.078;8.414;2023-06-19T20:04:38;99913.56;;;24.04;46.06
56514;BME280;62152;52.078;8.414;2023-06-19T20:08:41;99917.53;;;24.03;46.34
56514;BME280;62152;52.078;8.414;2023-06-19T20:12:45;99917.94;;;24.01;46.69
56514;BME280;62152;52.078;8.414;2023-06-19T20:16:45;99921.13;;;24.00;46.21
56514;BME280;62152;52.078;8.414;2023-06-19T20:20:46;99922.31;;;23.99;46.45
56514;BME280;62152;52.078;8.414;2023-06-19T20:24:47;99918.00;;;23.98;46.72
56514;BME280;62152;52.078;8.414;2023-06-19T20:28:49;99924.72;;;23.97;46.10
56514;BME280;62152;52.078;8.414;2023-06-19T20:32:50;99915.63;;;23.96;46.16
56514;BME280;62152;52.078;8.414;2023-06-19T20:36:51;99917.63;;;23.96;46.54
56514;BME280;62152;52.078;8.414;2023-06-19T20:40:52;99918.00;;;23.94;46.86
56514;BME280;62152;52.078;8.414;2023-06-19T20:44:54;99919.63;;;23.92;46.85
56514;BME280;62152;52.078;8.414;2023-06-19T20:48:55;99916.44;;;23.93;46.53
56514;BME280;62152;52.078;8.414;2023-06-19T20:52:56;99916.50;;;23.90;46.83
56514;BME280;62152;52.078;8.414;2023-06-19T20:56:56;99924.03;;;23.89;46.85
56514;BME280;62152;52.078;8.414;2023-06-19T21:00:59;99917.72;;;23.89;46.41
56514;BME280;62152;52.078;8.414;2023-06-19T21:05:00;99923.25;;;23.89;46.75
56514;BME280;62152;52.078;8.414;2023-06-19T21:09:01;99919.69;;;23.88;46.63
56514;BME280;62152;52.078;8.414;2023-06-19T21:13:01;99925.63;;;23.87;46.99
56514;BME280;62152;52.078;8.414;2023-06-19T21:17:04;99926.41;;;23.87;46.90
56514;BME280;62152;52.078;8.414;2023-06-19T21:21:05;99924.06;;;23.86;47.03